sensor_id;sensor_type;location;lat;lon;timestamp;temperature;humidity
10296;DHT22;5193;51.032;6.356;2023-02-28T00:00:27;-0.10;99.90
10296;DHT22;5193;51.032;6.356;2023-02-28T00:02:53;-0.10;99.90
10296;DHT22;5193;51.032;6.356;2023-02-28T00:05:21;-0.10;99.90
10296;DHT22;5193;51.032;6.356;2023-02-28T00:07:48;-0.20;99.90
10296;DHT22;5193;51.032;6.356;2023-02-28T00:10:18;-0.20;99.90
10296;DHT22;5193;51.032;6.356;2023-02-28T00:12:46;-0.20;99.90
10296;DHT22;5193;51.032;6.356;2023-02-28T00:15:12;-0.20;99.90
10296;DHT22;5193;51.032;6.356;2023-02-28T00:17:38;-0.20;99.90
10296;DHT22;5193;51.032;6.356;2023-02-28T00:20:05;-0.20;99.90
10296;DHT22;5193;51.032;6.356;2023-02-28T00:22:33;-0.10;99.90
10296;DHT22;5193;51.032;6.356;2023-02-28T00:24:59;-0.10;99.90
10296;DHT22;5193;51.032;6.356;2023-02-28T00:27:24;-0.10;99.90
10296;DHT22;5193;51.032;6.356;2023-02-28T00:29:50;-0.10;99.90
10296;DHT22;5193;51.032;6.356;2023-02-28T00:32:15;-0.10;99.90
10296;DHT22;5193;51.032;6.356;2023-02-28T00:34:41;-0.10;99.90
10296;DHT22;5193;51.032;6.356;2023-02-28T00:37:08;-0.10;99.90
10296;DHT22;5193;51.032;6.356;2023-02-28T00:39:35;-0.10;99.90
10296;DHT22;5193;51.032;6.356;2023-02-28T00:42:02;-0.10;99.90
10296;DHT22;5193;51.032;6.356;2023-02-28T00:44:29;0.00;99.90
10296;DHT22;5193;51.032;6.356;2023-02-28T00:46:55;-0.10;99.90
10296;DHT22;5193;51.032;6.356;2023-02-28T00:49:22;-0.10;99.90
10296;DHT22;5193;51.032;6.356;2023-02-28T00:51:48;-0.10;99.90
10296;DHT22;5193;51.032;6.356;2023-02-28T00:54:13;-0.20;99.90
10296;DHT22;5193;51.032;6.356;2023-02-28T00:56:39;-0.20;99.90
10296;DHT22;5193;51.032;6.356;2023-02-28T00:59:04;-0.20;99.90
10296;DHT22;5193;51.032;6.356;2023-02-28T01:01:30;-0.20;99.90
10296;DHT22;5193;51.032;6.356;2023-02-28T01:03:55;-0.20;99.90
10296;DHT22;5193;51.032;6.356;2023-02-28T01:06:21;-0.20;99.90
10296;DHT22;5193;51.032;6.356;2023-02-28T01:08:47;-0.20;99.90
10296;DHT22;5193;51.032;6.356;2023-02-28T01:11:15;-0.30;99.90
10296;DHT22;5193;51.032;6.356;2023-02-28T01:13:41;-0.20;99.90
10296;DHT22;5193;51.032;6.356;2023-02-28T01:16:07;-0.20;99.90
10296;DHT22;5193;51.032;6.356;2023-02-28T01:18:33;-0.20;99.90
10296;DHT22;5193;51.032;6.356;2023-02-28T01:21:07;-0.20;99.90
10296;DHT22;5193;51.032;6.356;2023-02-28T01:23:32;-0.20;99.90
10296;DHT22;5193;51.032;6.356;2023-02-28T01:26:07;-0.20;99.90
10296;DHT22;5193;51.032;6.356;2023-02-28T01:28:33;-0.20;99.90
10296;DHT22;5193;51.032;6.356;2023-02-28T01:30:59;-0.20;99.90
10296;DHT22;5193;51.032;6.356;2023-02-28T01:33:25;-0.20;99.90
10296;DHT22;5193;51.032;6.356;2023-02-28T01:35:58;-0.30;99.90
10296;DHT22;5193;51.032;6.356;2023-02-28T01:38:23;-0.30;99.90
10296;DHT22;5193;51.032;6.356;2023-02-28T01:40:49;-0.30;99.90
10296;DHT22;5193;51.032;6.356;2023-02-28T01:43:24;-0.30;99.90
10296;DHT22;5193;51.032;6.356;2023-02-28T01:45:51;-0.20;99.90
10296;DHT22;5193;51.032;6.356;2023-02-28T01:48:19;-0.30;99.90
10296;DHT22;5193;51.032;6.356;2023-02-28T01:50:46;-0.30;99.90
10296;DHT22;5193;51.032;6.356;2023-02-28T01:53:16;-0.30;99.90
10296;DHT22;5193;51.032;6.356;2023-02-28T01:55:46;-0.30;99.90
10296;DHT22;5193;51.032;6.356;2023-02-28T01:58:13;-0.40;99.90
10296;DHT22;5193;51.032;6.356;2023-02-28T02:00:38;-0.50;99.90
10296;DHT22;5193;51.032;6.356;2023-02-28T02:03:08;-0.50;99.90
10296;DHT22;5193;51.032;6.356;2023-02-28T02:05:37;-0.50;99.90
10296;DHT22;5193;51.032;6.356;2023-02-28T02:08:12;-0.60;99.90
10296;DHT22;5193;51.032;6.356;2023-02-28T02:10:43;-0.60;99.90
10296;DHT22;5193;51.032;6.356;2023-02-28T02:16:10;-0.60;99.90
10296;DHT22;5193;51.032;6.356;2023-02-28T02:18:43;-0.50;99.90
10296;DHT22;5193;51.032;6.356;2023-02-28T02:37:52;-0.50;99.90
10296;DHT22;5193;51.032;6.356;2023-02-28T02:40:22;-0.50;99.90
10296;DHT22;5193;51.032;6.356;2023-02-28T02:42:52;-0.50;99.90
10296;DHT22;5193;51.032;6.356;2023-02-28T02:45:28;-0.50;99.90
10296;DHT22;5193;51.032;6.356;2023-02-28T02:48:02;-0.50;99.90
10296;DHT22;5193;51.032;6.356;2023-02-28T02:50:46;-0.50;99.90
10296;DHT22;5193;51.032;6.356;2023-02-28T02:53:15;-0.40;99.90
10296;DHT22;5193;51.032;6.356;2023-02-28T02:55:45;-0.40;99.90
10296;DHT22;5193;51.032;6.356;2023-02-28T02:58:15;-0.40;99.90
10296;DHT22;5193;51.032;6.356;2023-02-28T03:00:46;-0.40;99.90
10296;DHT22;5193;51.032;6.356;2023-02-28T03:03:14;-0.50;99.90
10296;DHT22;5193;51.032;6.356;2023-02-28T03:05:47;-0.60;99.90
10296;DHT22;5193;51.032;6.356;2023-02-28T03:08:13;-0.70;99.90
10296;DHT22;5193;51.032;6.356;2023-02-28T03:10:42;-0.70;99.90
10296;DHT22;5193;51.032;6.356;2023-02-28T03:16:19;-0.90;99.90
10296;DHT22;5193;51.032;6.356;2023-02-28T03:27:16;-1.10;99.90
10296;DHT22;5193;51.032;6.356;2023-02-28T03:29:46;-1.10;99.90
10296;DHT22;5193;51.032;6.356;2023-02-28T03:32:27;-1.10;99.90
10296;DHT22;5193;51.032;6.356;2023-02-28T03:37:32;-1.20;99.90
10296;DHT22;5193;51.032;6.356;2023-02-28T03:40:06;-1.30;99.90
10296;DHT22;5193;51.032;6.356;2023-02-28T03:42:36;-1.40;99.90
10296;DHT22;5193;51.032;6.356;2023-02-28T03:45:13;-1.40;99.90
10296;DHT22;5193;51.032;6.356;2023-02-28T03:50:31;-1.40;99.90
10296;DHT22;5193;51.032;6.356;2023-02-28T03:53:10;-1.50;99.90
10296;DHT22;5193;51.032;6.356;2023-02-28T03:55:47;-1.50;99.90
10296;DHT22;5193;51.032;6.356;2023-02-28T04:01:08;-1.60;99.90
10296;DHT22;5193;51.032;6.356;2023-02-28T04:03:38;-1.70;99.90
10296;DHT22;5193;51.032;6.356;2023-02-28T04:06:05;-1.70;99.90
10296;DHT22;5193;51.032;6.356;2023-02-28T04:08:32;-1.80;99.90
10296;DHT22;5193;51.032;6.356;2023-02-28T04:11:06;-1.80;99.90
10296;DHT22;5193;51.032;6.356;2023-02-28T04:13:32;-1.90;99.90
10296;DHT22;5193;51.032;6.356;2023-02-28T04:15:58;-1.90;99.90
10296;DHT22;5193;51.032;6.356;2023-02-28T04:18:23;-2.00;99.90
10296;DHT22;5193;51.032;6.356;2023-02-28T04:20:49;-2.00;99.90
10296;DHT22;5193;51.032;6.356;2023-02-28T04:23:14;-2.00;99.90
10296;DHT22;5193;51.032;6.356;2023-02-28T04:25:40;-2.00;99.90
10296;DHT22;5193;51.032;6.356;2023-02-28T04:28:06;-2.10;99.90
10296;DHT22;5193;51.032;6.356;2023-02-28T04:30:32;-2.10;99.90
10296;DHT22;5193;51.032;6.356;2023-02-28T04:32:58;-2.10;99.90
10296;DHT22;5193;51.032;6.356;2023-02-28T04:35:23;-2.10;99.90
10296;DHT22;5193;51.032;6.356;2023-02-28T04:37:49;-2.10;99.90
10296;DHT22;5193;51.032;6.356;2023-02-28T04:40:15;-2.00;99.90
10296;DHT22;5193;51.032;6.356;2023-02-28T04:42:40;-1.90;99.90
10296;DHT22;5193;51.032;6.356;2023-02-28T04:45:06;-1.70;99.90
10296;DHT22;5193;51.032;6.356;2023-02-28T04:47:35;-1.60;99.90
10296;DHT22;5193;51.032;6.356;2023-02-28T04:50:01;-1.50;99.90
10296;DHT22;5193;51.032;6.356;2023-02-28T04:52:27;-1.40;99.90
10296;DHT22;5193;51.032;6.356;2023-02-28T04:54:53;-1.40;99.90
10296;DHT22;5193;51.032;6.356;2023-02-28T04:57:18;-1.40;99.90
10296;DHT22;5193;51.032;6.356;2023-02-28T04:59:44;-1.40;99.90
10296;DHT22;5193;51.032;6.356;2023-02-28T05:02:09;-1.40;99.90
10296;DHT22;5193;51.032;6.356;2023-02-28T05:04:35;-1.40;99.90
10296;DHT22;5193;51.032;6.356;2023-02-28T05:07:01;-1.50;99.90
10296;DHT22;5193;51.032;6.356;2023-02-28T05:09:28;-1.50;99.90
10296;DHT22;5193;51.032;6.356;2023-02-28T05:11:54;-1.60;99.90
10296;DHT22;5193;51.032;6.356;2023-02-28T05:14:20;-1.60;99.90
10296;DHT22;5193;51.032;6.356;2023-02-28T05:16:46;-1.60;99.90
10296;DHT22;5193;51.032;6.356;2023-02-28T05:19:12;-1.70;99.90
10296;DHT22;5193;51.032;6.356;2023-02-28T05:21:48;-1.70;99.90
10296;DHT22;5193;51.032;6.356;2023-02-28T05:24:14;-1.70;99.90
10296;DHT22;5193;51.032;6.356;2023-02-28T05:26:41;-1.80;99.90
10296;DHT22;5193;51.032;6.356;2023-02-28T05:29:07;-1.80;99.90
10296;DHT22;5193;51.032;6.356;2023-02-28T05:31:34;-1.80;99.90
10296;DHT22;5193;51.032;6.356;2023-02-28T05:34:00;-1.80;99.90
10296;DHT22;5193;51.032;6.356;2023-02-28T05:36:26;-1.80;99.90
10296;DHT22;5193;51.032;6.356;2023-02-28T05:38:51;-1.80;99.90
10296;DHT22;5193;51.032;6.356;2023-02-28T05:41:19;-1.80;99.90
10296;DHT22;5193;51.032;6.356;2023-02-28T05:43:45;-1.80;99.90
10296;DHT22;5193;51.032;6.356;2023-02-28T05:46:11;-1.80;99.90
10296;DHT22;5193;51.032;6.356;2023-02-28T05:48:39;-1.80;99.90
10296;DHT22;5193;51.032;6.356;2023-02-28T05:51:06;-1.90;99.90
10296;DHT22;5193;51.032;6.356;2023-02-28T05:53:32;-1.80;99.90
10296;DHT22;5193;51.032;6.356;2023-02-28T05:55:58;-1.90;99.90
10296;DHT22;5193;51.032;6.356;2023-02-28T05:58:24;-1.80;99.90
10296;DHT22;5193;51.032;6.356;2023-02-28T06:00:56;-1.90;99.90
10296;DHT22;5193;51.032;6.356;2023-02-28T06:03:22;-1.90;99.90
10296;DHT22;5193;51.032;6.356;2023-02-28T06:05:48;-1.90;99.90
10296;DHT22;5193;51.032;6.356;2023-02-28T06:08:13;-1.90;99.90
10296;DHT22;5193;51.032;6.356;2023-02-28T06:10:39;-1.90;99.90
10296;DHT22;5193;51.032;6.356;2023-02-28T06:13:05;-1.90;99.90
10296;DHT22;5193;51.032;6.356;2023-02-28T06:15:31;-1.90;99.90
10296;DHT22;5193;51.032;6.356;2023-02-28T06:17:57;-1.90;99.90
10296;DHT22;5193;51.032;6.356;2023-02-28T06:20:24;-1.90;99.90
10296;DHT22;5193;51.032;6.356;2023-02-28T06:22:51;-1.90;99.90
10296;DHT22;5193;51.032;6.356;2023-02-28T06:25:19;-1.90;99.90
10296;DHT22;5193;51.032;6.356;2023-02-28T06:27:45;-1.90;99.90
10296;DHT22;5193;51.032;6.356;2023-02-28T06:30:11;-1.90;99.90
10296;DHT22;5193;51.032;6.356;2023-02-28T06:32:37;-1.90;99.90
10296;DHT22;5193;51.032;6.356;2023-02-28T06:35:03;-1.90;99.90
10296;DHT22;5193;51.032;6.356;2023-02-28T06:37:30;-1.80;99.90
10296;DHT22;5193;51.032;6.356;2023-02-28T06:39:55;-1.80;99.90
10296;DHT22;5193;51.032;6.356;2023-02-28T06:42:22;-1.80;99.90
10296;DHT22;5193;51.032;6.356;2023-02-28T06:44:50;-1.80;99.90
10296;DHT22;5193;51.032;6.356;2023-02-28T06:47:16;-1.80;99.90
10296;DHT22;5193;51.032;6.356;2023-02-28T06:49:41;-1.80;99.90
10296;DHT22;5193;51.032;6.356;2023-02-28T06:52:07;-1.80;99.90
10296;DHT22;5193;51.032;6.356;2023-02-28T06:54:34;-1.70;99.90
10296;DHT22;5193;51.032;6.356;2023-02-28T06:56:59;-1.70;99.90
10296;DHT22;5193;51.032;6.356;2023-02-28T06:59:25;-1.60;99.90
10296;DHT22;5193;51.032;6.356;2023-02-28T07:01:50;-1.60;99.90
10296;DHT22;5193;51.032;6.356;2023-02-28T07:04:16;-1.60;99.90
10296;DHT22;5193;51.032;6.356;2023-02-28T07:06:41;-1.50;99.90
10296;DHT22;5193;51.032;6.356;2023-02-28T07:09:07;-1.50;99.90
10296;DHT22;5193;51.032;6.356;2023-02-28T07:11:33;-1.50;99.90
10296;DHT22;5193;51.032;6.356;2023-02-28T07:13:59;-1.50;99.90
10296;DHT22;5193;51.032;6.356;2023-02-28T07:16:25;-1.40;99.90
10296;DHT22;5193;51.032;6.356;2023-02-28T07:18:54;-1.40;99.90
10296;DHT22;5193;51.032;6.356;2023-02-28T07:21:20;-1.40;99.90
10296;DHT22;5193;51.032;6.356;2023-02-28T07:23:46;-1.40;99.90
10296;DHT22;5193;51.032;6.356;2023-02-28T07:26:14;-1.40;99.90
10296;DHT22;5193;51.032;6.356;2023-02-28T07:28:45;-1.30;99.90
10296;DHT22;5193;51.032;6.356;2023-02-28T07:31:12;-1.30;99.90
10296;DHT22;5193;51.032;6.356;2023-02-28T07:33:39;-1.20;99.90
10296;DHT22;5193;51.032;6.356;2023-02-28T07:36:07;-1.20;99.90
10296;DHT22;5193;51.032;6.356;2023-02-28T07:38:35;-1.20;99.90
10296;DHT22;5193;51.032;6.356;2023-02-28T07:41:01;-1.10;99.90
10296;DHT22;5193;51.032;6.356;2023-02-28T07:43:30;-1.10;99.90
10296;DHT22;5193;51.032;6.356;2023-02-28T07:45:55;-1.00;99.90
10296;DHT22;5193;51.032;6.356;2023-02-28T07:48:21;-1.00;99.90
10296;DHT22;5193;51.032;6.356;2023-02-28T07:50:54;-0.90;99.90
10296;DHT22;5193;51.032;6.356;2023-02-28T07:53:20;-0.90;99.90
10296;DHT22;5193;51.032;6.356;2023-02-28T07:55:46;-0.80;99.90
10296;DHT22;5193;51.032;6.356;2023-02-28T07:58:11;-0.80;99.90
10296;DHT22;5193;51.032;6.356;2023-02-28T08:00:37;-0.70;99.90
10296;DHT22;5193;51.032;6.356;2023-02-28T08:03:03;-0.70;99.90
10296;DHT22;5193;51.032;6.356;2023-02-28T08:05:29;-0.70;99.90
10296;DHT22;5193;51.032;6.356;2023-02-28T08:07:55;-0.60;99.90
10296;DHT22;5193;51.032;6.356;2023-02-28T08:10:21;-0.50;99.90
10296;DHT22;5193;51.032;6.356;2023-02-28T08:12:46;-0.50;99.90
10296;DHT22;5193;51.032;6.356;2023-02-28T08:15:12;-0.40;99.90
10296;DHT22;5193;51.032;6.356;2023-02-28T08:17:38;-0.30;99.90
10296;DHT22;5193;51.032;6.356;2023-02-28T08:20:03;-0.20;99.90
10296;DHT22;5193;51.032;6.356;2023-02-28T08:22:29;-0.10;99.90
10296;DHT22;5193;51.032;6.356;2023-02-28T08:24:55;0.00;99.90
10296;DHT22;5193;51.032;6.356;2023-02-28T08:27:20;0.10;99.90
10296;DHT22;5193;51.032;6.356;2023-02-28T08:29:46;0.10;99.90
10296;DHT22;5193;51.032;6.356;2023-02-28T08:32:11;0.20;99.90
10296;DHT22;5193;51.032;6.356;2023-02-28T08:34:39;0.30;99.90
10296;DHT22;5193;51.032;6.356;2023-02-28T08:37:05;0.40;99.90
10296;DHT22;5193;51.032;6.356;2023-02-28T08:39:30;0.50;99.90
10296;DHT22;5193;51.032;6.356;2023-02-28T08:41:58;0.60;99.90
10296;DHT22;5193;51.032;6.356;2023-02-28T08:44:24;0.60;99.90
10296;DHT22;5193;51.032;6.356;2023-02-28T08:46:50;0.70;99.90
10296;DHT22;5193;51.032;6.356;2023-02-28T08:49:15;0.80;99.90
10296;DHT22;5193;51.032;6.356;2023-02-28T08:51:41;0.90;99.90
10296;DHT22;5193;51.032;6.356;2023-02-28T08:54:08;1.00;99.90
10296;DHT22;5193;51.032;6.356;2023-02-28T08:56:34;1.00;99.90
10296;DHT22;5193;51.032;6.356;2023-02-28T08:58:59;1.20;99.90
10296;DHT22;5193;51.032;6.356;2023-02-28T09:01:29;1.30;99.90
10296;DHT22;5193;51.032;6.356;2023-02-28T09:03:57;1.50;99.90
10296;DHT22;5193;51.032;6.356;2023-02-28T09:06:25;1.60;99.90
10296;DHT22;5193;51.032;6.356;2023-02-28T09:08:52;1.70;99.90
10296;DHT22;5193;51.032;6.356;2023-02-28T09:11:18;1.80;99.90
10296;DHT22;5193;51.032;6.356;2023-02-28T09:13:45;1.90;99.90
10296;DHT22;5193;51.032;6.356;2023-02-28T09:16:13;2.00;99.90
10296;DHT22;5193;51.032;6.356;2023-02-28T09:18:39;2.10;99.90
10296;DHT22;5193;51.032;6.356;2023-02-28T09:21:07;2.10;99.90
10296;DHT22;5193;51.032;6.356;2023-02-28T09:23:33;2.20;99.90
10296;DHT22;5193;51.032;6.356;2023-02-28T09:25:58;2.30;99.90
10296;DHT22;5193;51.032;6.356;2023-02-28T09:28:24;2.40;99.90
10296;DHT22;5193;51.032;6.356;2023-02-28T09:30:52;2.50;99.90
10296;DHT22;5193;51.032;6.356;2023-02-28T09:33:21;2.60;99.90
10296;DHT22;5193;51.032;6.356;2023-02-28T09:35:48;2.70;99.90
10296;DHT22;5193;51.032;6.356;2023-02-28T09:38:14;2.80;99.90
10296;DHT22;5193;51.032;6.356;2023-02-28T09:40:50;2.90;99.90
10296;DHT22;5193;51.032;6.356;2023-02-28T09:43:18;2.90;99.90
10296;DHT22;5193;51.032;6.356;2023-02-28T09:45:50;3.00;99.90
10296;DHT22;5193;51.032;6.356;2023-02-28T09:48:27;3.10;99.90
10296;DHT22;5193;51.032;6.356;2023-02-28T09:51:01;3.20;99.90
10296;DHT22;5193;51.032;6.356;2023-02-28T09:53:36;3.30;99.90
10296;DHT22;5193;51.032;6.356;2023-02-28T09:56:09;3.30;99.90
10296;DHT22;5193;51.032;6.356;2023-02-28T09:58:46;3.40;99.90
10296;DHT22;5193;51.032;6.356;2023-02-28T10:01:53;3.50;99.90
10296;DHT22;5193;51.032;6.356;2023-02-28T10:04:50;3.60;99.90
10296;DHT22;5193;51.032;6.356;2023-02-28T10:13:34;3.70;99.90
10296;DHT22;5193;51.032;6.356;2023-02-28T10:16:10;3.80;99.90
10296;DHT22;5193;51.032;6.356;2023-02-28T10:18:49;3.90;99.90
10296;DHT22;5193;51.032;6.356;2023-02-28T10:21:38;4.00;99.90
10296;DHT22;5193;51.032;6.356;2023-02-28T10:24:15;4.10;99.90
10296;DHT22;5193;51.032;6.356;2023-02-28T10:26:44;4.20;99.90
10296;DHT22;5193;51.032;6.356;2023-02-28T10:29:10;4.20;99.90
10296;DHT22;5193;51.032;6.356;2023-02-28T10:31:36;4.30;99.90
10296;DHT22;5193;51.032;6.356;2023-02-28T10:34:02;4.30;99.90
10296;DHT22;5193;51.032;6.356;2023-02-28T10:36:29;4.30;99.90
10296;DHT22;5193;51.032;6.356;2023-02-28T10:38:55;4.20;99.90
10296;DHT22;5193;51.032;6.356;2023-02-28T10:41:31;4.20;99.90
10296;DHT22;5193;51.032;6.356;2023-02-28T10:44:30;4.20;99.90
10296;DHT22;5193;51.032;6.356;2023-02-28T10:46:56;4.20;99.90
10296;DHT22;5193;51.032;6.356;2023-02-28T10:49:28;4.30;99.90
10296;DHT22;5193;51.032;6.356;2023-02-28T10:51:57;4.40;99.90
10296;DHT22;5193;51.032;6.356;2023-02-28T10:54:34;4.50;99.90
10296;DHT22;5193;51.032;6.356;2023-02-28T10:57:21;4.60;99.90
10296;DHT22;5193;51.032;6.356;2023-02-28T10:59:51;4.70;99.90
10296;DHT22;5193;51.032;6.356;2023-02-28T11:02:35;4.60;99.90
10296;DHT22;5193;51.032;6.356;2023-02-28T11:05:04;4.50;99.90
10296;DHT22;5193;51.032;6.356;2023-02-28T11:07:52;4.50;99.90
10296;DHT22;5193;51.032;6.356;2023-02-28T11:10:20;4.50;99.90
10296;DHT22;5193;51.032;6.356;2023-02-28T11:12:46;4.50;99.90
10296;DHT22;5193;51.032;6.356;2023-02-28T11:15:25;4.60;99.90
10296;DHT22;5193;51.032;6.356;2023-02-28T11:20:30;4.80;99.90
10296;DHT22;5193;51.032;6.356;2023-02-28T11:22:58;4.90;99.90
10296;DHT22;5193;51.032;6.356;2023-02-28T11:25:32;4.90;99.90
10296;DHT22;5193;51.032;6.356;2023-02-28T11:28:03;4.90;99.90
10296;DHT22;5193;51.032;6.356;2023-02-28T11:30:39;4.90;99.90
10296;DHT22;5193;51.032;6.356;2023-02-28T11:33:32;4.80;99.90
10296;DHT22;5193;51.032;6.356;2023-02-28T11:36:20;4.70;99.90
10296;DHT22;5193;51.032;6.356;2023-02-28T11:38:47;4.70;99.90
10296;DHT22;5193;51.032;6.356;2023-02-28T11:50:03;5.10;99.90
10296;DHT22;5193;51.032;6.356;2023-02-28T11:55:35;5.10;99.90
10296;DHT22;5193;51.032;6.356;2023-02-28T12:01:05;4.90;99.90
10296;DHT22;5193;51.032;6.356;2023-02-28T12:04:07;4.80;99.90
10296;DHT22;5193;51.032;6.356;2023-02-28T12:06:45;4.70;99.90
10296;DHT22;5193;51.032;6.356;2023-02-28T12:12:21;4.50;99.90
10296;DHT22;5193;51.032;6.356;2023-02-28T12:17:49;4.60;99.90
10296;DHT22;5193;51.032;6.356;2023-02-28T12:25:46;4.70;99.90
10296;DHT22;5193;51.032;6.356;2023-02-28T12:28:17;4.60;99.90
10296;DHT22;5193;51.032;6.356;2023-02-28T12:30:58;4.70;99.90
10296;DHT22;5193;51.032;6.356;2023-02-28T12:33:32;4.60;99.90
10296;DHT22;5193;51.032;6.356;2023-02-28T12:36:00;4.80;99.90
10296;DHT22;5193;51.032;6.356;2023-02-28T12:38:34;4.90;99.90
10296;DHT22;5193;51.032;6.356;2023-02-28T12:41:04;5.00;99.90
10296;DHT22;5193;51.032;6.356;2023-02-28T12:43:39;5.10;99.90
10296;DHT22;5193;51.032;6.356;2023-02-28T12:46:21;5.10;99.90
10296;DHT22;5193;51.032;6.356;2023-02-28T12:48:53;5.10;99.90
10296;DHT22;5193;51.032;6.356;2023-02-28T12:51:22;5.20;99.90
10296;DHT22;5193;51.032;6.356;2023-02-28T12:54:16;5.30;99.90
10296;DHT22;5193;51.032;6.356;2023-02-28T13:10:50;5.70;99.90
10296;DHT22;5193;51.032;6.356;2023-02-28T13:13:27;5.80;99.90
10296;DHT22;5193;51.032;6.356;2023-02-28T13:16:10;5.80;99.90
10296;DHT22;5193;51.032;6.356;2023-02-28T13:18:36;5.80;99.90
10296;DHT22;5193;51.032;6.356;2023-02-28T13:21:04;5.90;99.90
10296;DHT22;5193;51.032;6.356;2023-02-28T13:26:16;6.00;99.90
10296;DHT22;5193;51.032;6.356;2023-02-28T13:31:18;6.00;99.90
10296;DHT22;5193;51.032;6.356;2023-02-28T13:38:44;6.30;99.90
10296;DHT22;5193;51.032;6.356;2023-02-28T13:49:28;6.10;99.90
10296;DHT22;5193;51.032;6.356;2023-02-28T13:58:07;6.30;99.90
10296;DHT22;5193;51.032;6.356;2023-02-28T14:01:00;6.40;99.90
10296;DHT22;5193;51.032;6.356;2023-02-28T14:03:45;6.50;99.90
10296;DHT22;5193;51.032;6.356;2023-02-28T14:06:33;6.50;99.90
10296;DHT22;5193;51.032;6.356;2023-02-28T14:09:02;6.50;99.90
10296;DHT22;5193;51.032;6.356;2023-02-28T14:11:35;6.40;99.90
10296;DHT22;5193;51.032;6.356;2023-02-28T14:14:02;6.30;99.90
10296;DHT22;5193;51.032;6.356;2023-02-28T14:16:48;6.30;99.90
10296;DHT22;5193;51.032;6.356;2023-02-28T14:19:24;6.20;99.80
10296;DHT22;5193;51.032;6.356;2023-02-28T14:27:28;6.40;99.90
10296;DHT22;5193;51.032;6.356;2023-02-28T14:38:23;6.80;99.90
10296;DHT22;5193;51.032;6.356;2023-02-28T14:40:52;6.80;99.90
10296;DHT22;5193;51.032;6.356;2023-02-28T14:43:24;6.90;99.90
10296;DHT22;5193;51.032;6.356;2023-02-28T14:45:56;7.00;99.90
10296;DHT22;5193;51.032;6.356;2023-02-28T14:48:23;6.90;99.90
10296;DHT22;5193;51.032;6.356;2023-02-28T14:50:56;6.80;99.90
10296;DHT22;5193;51.032;6.356;2023-02-28T14:53:25;6.80;99.90
10296;DHT22;5193;51.032;6.356;2023-02-28T14:55:51;6.80;99.90
10296;DHT22;5193;51.032;6.356;2023-02-28T14:58:32;6.70;99.90
10296;DHT22;5193;51.032;6.356;2023-02-28T15:01:03;6.60;99.90
10296;DHT22;5193;51.032;6.356;2023-02-28T15:03:34;6.60;99.90
10296;DHT22;5193;51.032;6.356;2023-02-28T15:06:06;6.60;99.90
10296;DHT22;5193;51.032;6.356;2023-02-28T15:08:32;6.60;99.90
10296;DHT22;5193;51.032;6.356;2023-02-28T15:11:02;6.60;99.90
10296;DHT22;5193;51.032;6.356;2023-02-28T15:13:39;6.60;99.90
10296;DHT22;5193;51.032;6.356;2023-02-28T15:16:10;6.60;99.90
10296;DHT22;5193;51.032;6.356;2023-02-28T15:18:50;6.70;99.90
10296;DHT22;5193;51.032;6.356;2023-02-28T15:21:25;6.80;99.90
10296;DHT22;5193;51.032;6.356;2023-02-28T15:27:02;6.90;99.90
10296;DHT22;5193;51.032;6.356;2023-02-28T15:29:31;6.80;99.90
10296;DHT22;5193;51.032;6.356;2023-02-28T15:32:04;6.70;99.90
10296;DHT22;5193;51.032;6.356;2023-02-28T15:34:42;6.60;99.90
10296;DHT22;5193;51.032;6.356;2023-02-28T15:42:38;6.50;99.90
10296;DHT22;5193;51.032;6.356;2023-02-28T15:45:05;6.40;99.90
10296;DHT22;5193;51.032;6.356;2023-02-28T15:47:31;6.30;99.90
10296;DHT22;5193;51.032;6.356;2023-02-28T15:50:02;6.30;99.90
10296;DHT22;5193;51.032;6.356;2023-02-28T15:52:34;6.20;99.90
10296;DHT22;5193;51.032;6.356;2023-02-28T15:57:44;6.00;99.90
10296;DHT22;5193;51.032;6.356;2023-02-28T16:00:13;6.00;99.90
10296;DHT22;5193;51.032;6.356;2023-02-28T16:02:40;6.00;99.90
10296;DHT22;5193;51.032;6.356;2023-02-28T16:07:32;5.90;99.90
10296;DHT22;5193;51.032;6.356;2023-02-28T16:09:58;5.90;99.90
10296;DHT22;5193;51.032;6.356;2023-02-28T16:12:29;5.80;99.90
10296;DHT22;5193;51.032;6.356;2023-02-28T16:14:57;5.90;99.90
10296;DHT22;5193;51.032;6.356;2023-02-28T16:17:29;5.80;99.90
10296;DHT22;5193;51.032;6.356;2023-02-28T16:19:56;5.80;99.90
10296;DHT22;5193;51.032;6.356;2023-02-28T16:22:22;5.80;99.90
10296;DHT22;5193;51.032;6.356;2023-02-28T16:24:47;5.70;99.90
10296;DHT22;5193;51.032;6.356;2023-02-28T16:27:28;5.60;99.90
10296;DHT22;5193;51.032;6.356;2023-02-28T16:29:55;5.50;99.90
10296;DHT22;5193;51.032;6.356;2023-02-28T16:32:21;5.40;99.90
10296;DHT22;5193;51.032;6.356;2023-02-28T16:34:47;5.40;99.90
10296;DHT22;5193;51.032;6.356;2023-02-28T16:37:17;5.30;99.90
10296;DHT22;5193;51.032;6.356;2023-02-28T16:39:43;5.20;99.90
10296;DHT22;5193;51.032;6.356;2023-02-28T16:42:23;5.20;99.90
10296;DHT22;5193;51.032;6.356;2023-02-28T16:44:50;5.10;99.90
10296;DHT22;5193;51.032;6.356;2023-02-28T16:47:17;5.00;99.90
10296;DHT22;5193;51.032;6.356;2023-02-28T16:49:42;4.90;99.90
10296;DHT22;5193;51.032;6.356;2023-02-28T16:52:09;4.80;99.90
10296;DHT22;5193;51.032;6.356;2023-02-28T16:54:35;4.70;99.90
10296;DHT22;5193;51.032;6.356;2023-02-28T16:57:02;4.70;99.90
10296;DHT22;5193;51.032;6.356;2023-02-28T16:59:28;4.60;99.90
10296;DHT22;5193;51.032;6.356;2023-02-28T17:01:55;4.60;99.90
10296;DHT22;5193;51.032;6.356;2023-02-28T17:04:26;4.50;99.90
10296;DHT22;5193;51.032;6.356;2023-02-28T17:06:51;4.50;99.90
10296;DHT22;5193;51.032;6.356;2023-02-28T17:09:19;4.40;99.90
10296;DHT22;5193;51.032;6.356;2023-02-28T17:11:45;4.30;99.90
10296;DHT22;5193;51.032;6.356;2023-02-28T17:14:11;4.20;99.90
10296;DHT22;5193;51.032;6.356;2023-02-28T17:16:38;4.10;99.90
10296;DHT22;5193;51.032;6.356;2023-02-28T17:19:06;4.10;99.90
10296;DHT22;5193;51.032;6.356;2023-02-28T17:21:33;4.00;99.90
10296;DHT22;5193;51.032;6.356;2023-02-28T17:23:59;4.00;99.90
10296;DHT22;5193;51.032;6.356;2023-02-28T17:26:25;3.90;99.90
10296;DHT22;5193;51.032;6.356;2023-02-28T17:28:52;3.90;99.90
10296;DHT22;5193;51.032;6.356;2023-02-28T17:31:19;3.80;99.90
10296;DHT22;5193;51.032;6.356;2023-02-28T17:33:44;3.70;99.90
10296;DHT22;5193;51.032;6.356;2023-02-28T17:36:17;3.70;99.90
10296;DHT22;5193;51.032;6.356;2023-02-28T17:38:47;3.60;99.90
10296;DHT22;5193;51.032;6.356;2023-02-28T17:41:13;3.60;99.90
10296;DHT22;5193;51.032;6.356;2023-02-28T17:43:39;3.50;99.90
10296;DHT22;5193;51.032;6.356;2023-02-28T17:46:05;3.50;99.90
10296;DHT22;5193;51.032;6.356;2023-02-28T17:48:32;3.40;99.90
10296;DHT22;5193;51.032;6.356;2023-02-28T17:50:58;3.40;99.90
10296;DHT22;5193;51.032;6.356;2023-02-28T17:53:23;3.30;99.90
10296;DHT22;5193;51.032;6.356;2023-02-28T17:55:50;3.30;99.90
10296;DHT22;5193;51.032;6.356;2023-02-28T17:58:15;3.20;99.90
10296;DHT22;5193;51.032;6.356;2023-02-28T18:00:41;3.20;99.90
10296;DHT22;5193;51.032;6.356;2023-02-28T18:03:06;3.10;99.90
10296;DHT22;5193;51.032;6.356;2023-02-28T18:05:32;3.10;99.90
10296;DHT22;5193;51.032;6.356;2023-02-28T18:07:58;3.10;99.90
10296;DHT22;5193;51.032;6.356;2023-02-28T18:10:23;3.10;99.90
10296;DHT22;5193;51.032;6.356;2023-02-28T18:12:50;3.10;99.90
10296;DHT22;5193;51.032;6.356;2023-02-28T18:15:19;3.00;99.90
10296;DHT22;5193;51.032;6.356;2023-02-28T18:17:49;3.00;99.90
10296;DHT22;5193;51.032;6.356;2023-02-28T18:20:14;3.00;99.90
10296;DHT22;5193;51.032;6.356;2023-02-28T18:22:41;2.90;99.90
10296;DHT22;5193;51.032;6.356;2023-02-28T18:25:08;2.90;99.90
10296;DHT22;5193;51.032;6.356;2023-02-28T18:27:36;2.90;99.90